Fort Worth Alliance Airport Fort Worth US
ICAO: KAFW
IATA: AFW
Category: Large
Scheduled Services: No

Elevation: 722 ft
TransAlt. 18000 ft.

Airport Communications:
RGNL APP/DEP:118.1
ASOS:126.925
ATIS:126.925
CLNC DEL:128.725
GND:132.65
ALLIANCE TWR:120.825

KAFW Zoom In..

If you have problems with the map follow the link
https://www.worldairports.se/pages/airport.php?
ICAO=KAFW

Runways:

(A) RW 16L length 9600 ft width 150 ft
ILS 110.15 / hdg 163

(B) RW 16R length 8220 ft width 150 ft
---- / hdg 163

(C) RW 34L length 8220 ft width 150 ft
---- / hdg 343

(D) RW 34R length 9600 ft width 150 ft
ILS 110.15 / hdg 343

Location; KAFW
Day. 05 / Time. 21.53 Zulu
* Altimeter: 29.83
* Temperature: 23° c. 73.4°f.
* Wind from: 170° Speed 11 kn.
Dewpoint: 09° c.
Visibility: 10 Statute Miles.
Clouds: Broken 12000 ft.
Clouds: Broken 28000 ft.

KAFW 052153Z 17011KT 10SM BKN120 BKN280 23/09 A2983 RMK AO2 SLP098 T02280094


Wind From 170°
Speed 11 kn.

 
 
jpsmedia worldairports.se 2019   terms of use